createdAt,value
2023-01-17T00:01:28.722Z,99717.10
2023-01-17T00:04:13.965Z,99715.73
2023-01-17T00:07:02.522Z,99716.20
2023-01-17T00:09:48.093Z,99713.42
2023-01-17T00:12:14.888Z,99712.27
2023-01-17T00:14:45.120Z,99708.02
2023-01-17T00:17:11.990Z,99701.02
2023-01-17T00:19:57.425Z,99698.96
2023-01-17T00:22:47.524Z,99698.36
2023-01-17T00:25:40.736Z,99694.75
2023-01-17T00:28:07.380Z,99688.52
2023-01-17T00:30:34.065Z,99684.30
2023-01-17T00:33:01.182Z,99684.10
2023-01-17T00:35:29.256Z,99686.21
2023-01-17T00:38:05.020Z,99685.27
2023-01-17T00:40:32.957Z,99687.39
2023-01-17T00:43:18.196Z,99686.30
2023-01-17T00:46:03.812Z,99680.37
2023-01-17T00:48:49.267Z,99677.44
2023-01-17T00:51:35.359Z,99679.98
2023-01-17T00:54:20.902Z,99681.25
2023-01-17T00:57:06.818Z,99680.93
2023-01-17T00:59:55.348Z,99670.80
2023-01-17T01:02:44.490Z,99666.11
2023-01-17T01:05:29.940Z,99668.10
2023-01-17T01:08:15.953Z,99667.56
2023-01-17T01:11:02.096Z,99665.92
2023-01-17T01:13:48.459Z,99662.27
2023-01-17T01:16:34.435Z,99659.47
2023-01-17T01:19:20.666Z,99657.39
2023-01-17T01:22:05.961Z,99651.02
2023-01-17T01:24:51.561Z,99649.80
2023-01-17T01:27:37.512Z,99645.41
2023-01-17T01:30:24.187Z,99642.99
2023-01-17T01:33:10.038Z,99639.06
2023-01-17T01:35:37.010Z,99638.31
2023-01-17T01:38:04.036Z,99636.59
2023-01-17T01:40:30.989Z,99638.33
2023-01-17T01:42:59.361Z,99636.71
2023-01-17T01:45:29.486Z,99638.05
2023-01-17T01:48:02.185Z,99633.72
2023-01-17T01:50:30.029Z,99629.13
2023-01-17T01:52:59.212Z,99633.80
2023-01-17T01:55:32.395Z,99630.88
2023-01-17T01:58:02.102Z,99630.76
2023-01-17T02:00:30.482Z,99629.51
2023-01-17T06:04:30.383Z,99478.13
2023-01-17T06:06:57.387Z,99478.79
2023-01-17T06:09:24.325Z,99475.17
2023-01-17T06:11:52.110Z,99482.95
2023-01-17T06:14:19.060Z,99483.79
2023-01-17T06:16:47.926Z,99487.08
2023-01-17T06:19:14.827Z,99492.94
2023-01-17T06:39:14.847Z,99502.66
2023-01-17T06:41:43.241Z,99510.08
2023-01-17T06:44:10.316Z,99502.58
2023-01-17T06:46:37.623Z,99507.48
2023-01-17T06:49:04.660Z,99510.22
2023-01-17T06:51:31.612Z,99514.74
2023-01-17T06:53:58.640Z,99517.52
2023-01-17T06:56:25.577Z,99520.15
2023-01-17T06:58:52.573Z,99522.71
2023-01-17T07:01:19.661Z,99520.92
2023-01-17T07:03:46.803Z,99521.80
2023-01-17T08:05:16.703Z,99500.99
2023-01-17T08:07:43.691Z,99498.00
2023-01-17T08:10:13.276Z,99491.55
2023-01-17T08:12:40.201Z,99490.42
2023-01-17T08:15:08.304Z,99489.76
2023-01-17T08:17:35.250Z,99494.78
2023-01-17T08:20:02.444Z,99496.02
2023-01-17T08:22:30.918Z,99489.97
2023-01-17T08:24:57.955Z,99484.46
2023-01-17T08:27:24.884Z,99483.05
2023-01-17T08:29:52.375Z,99477.57
2023-01-17T08:32:21.579Z,99474.95
2023-01-17T08:34:48.569Z,99475.94
2023-01-17T08:37:15.579Z,99472.23
2023-01-17T08:39:42.532Z,99470.59
2023-01-17T08:42:09.539Z,99464.39
2023-01-17T08:44:36.546Z,99465.36
2023-01-17T08:47:03.509Z,99457.32
2023-01-17T08:49:30.519Z,99463.59
2023-01-17T08:51:57.579Z,99458.59
2023-01-17T08:54:24.474Z,99455.77
2023-01-17T08:56:53.023Z,99457.92
2023-01-17T08:59:19.988Z,99453.75
2023-01-17T09:01:47.099Z,99450.00
2023-01-17T09:04:14.357Z,99444.77
2023-01-17T09:06:43.012Z,99444.95
2023-01-17T09:09:13.832Z,99440.82
2023-01-17T09:11:40.748Z,99435.08
2023-01-17T09:14:07.803Z,99432.70
2023-01-17T09:16:34.825Z,99429.54
2023-01-17T09:19:01.820Z,99422.39
2023-01-17T09:21:28.739Z,99414.58
2023-01-17T09:23:55.836Z,99412.67
2023-01-17T09:26:27.803Z,99406.14
2023-01-17T09:28:54.765Z,99406.39
2023-01-17T09:31:22.299Z,99397.83
2023-01-17T09:33:50.061Z,99396.85
2023-01-17T09:36:18.976Z,99388.52
2023-01-17T09:38:46.190Z,99385.41
2023-01-17T09:41:35.610Z,99379.96
2023-01-17T09:44:28.224Z,99379.53
2023-01-17T09:47:00.342Z,99377.77
2023-01-17T09:49:38.254Z,99371.48
2023-01-17T09:52:06.124Z,99372.77
2023-01-17T09:54:35.792Z,99364.02
2023-01-17T16:00:24.390Z,99217.17
2023-01-17T16:02:55.946Z,99219.84
2023-01-17T16:05:27.972Z,99223.27
2023-01-17T16:08:16.301Z,99221.20
2023-01-17T16:10:43.524Z,99218.11
2023-01-17T16:13:11.784Z,99222.90
2023-01-17T16:15:40.414Z,99217.09
2023-01-17T16:18:14.941Z,99219.31
2023-01-17T16:20:44.254Z,99220.61
2023-01-17T16:23:11.209Z,99229.10
2023-01-17T16:25:38.545Z,99233.27
2023-01-17T16:28:05.836Z,99239.48
2023-01-17T16:30:33.319Z,99242.30
2023-01-17T16:33:00.435Z,99239.58
2023-01-17T16:35:30.187Z,99242.55
2023-01-17T16:38:07.951Z,99245.67
2023-01-17T16:40:39.510Z,99241.77
2023-01-17T16:43:06.738Z,99241.06
2023-01-17T16:45:41.206Z,99239.69
2023-01-17T16:48:09.051Z,99240.06
2023-01-17T16:50:36.022Z,99243.61
2023-01-17T16:53:02.983Z,99241.23
2023-01-17T16:55:30.044Z,99237.09
2023-01-17T16:57:58.309Z,99243.17
2023-01-17T17:00:26.874Z,99250.35
2023-01-17T17:02:54.097Z,99254.85
2023-01-17T17:05:21.158Z,99263.41
2023-01-17T17:07:51.521Z,99274.55
2023-01-17T17:10:20.362Z,99279.16
2023-01-17T17:12:47.411Z,99276.15
2023-01-17T17:15:14.434Z,99282.83
2023-01-17T17:17:42.252Z,99281.11
2023-01-17T17:20:12.185Z,99283.65
2023-01-17T17:22:45.486Z,99281.71
2023-01-17T17:25:12.601Z,99292.08
2023-01-17T17:27:39.544Z,99293.00
2023-01-17T17:30:07.655Z,99292.70
2023-01-17T17:32:34.591Z,99296.05
2023-01-17T17:35:01.513Z,99297.11
2023-01-17T17:37:29.291Z,99298.80
2023-01-17T17:39:57.193Z,99301.70
2023-01-17T17:42:24.212Z,99299.36
2023-01-17T17:44:51.243Z,99297.45
2023-01-17T17:47:18.219Z,99298.05
2023-01-17T17:49:45.277Z,99306.55
2023-01-17T17:52:12.346Z,99304.41
2023-01-17T17:54:39.232Z,99305.25
2023-01-17T17:57:06.700Z,99306.08
2023-01-17T17:59:33.991Z,99309.95
2023-01-17T18:02:01.632Z,99315.96
2023-01-17T22:03:51.295Z,99413.42
2023-01-17T22:06:19.271Z,99416.73
2023-01-17T22:08:46.072Z,99420.25
2023-01-17T22:11:14.577Z,99419.52
2023-01-17T22:13:42.161Z,99427.70
2023-01-17T22:16:14.140Z,99426.59
2023-01-17T22:18:41.854Z,99422.20
2023-01-17T22:21:11.329Z,99423.96
2023-01-17T22:23:38.730Z,99426.13
2023-01-17T22:26:07.540Z,99426.67
2023-01-17T22:28:34.358Z,99428.50
2023-01-17T22:31:36.924Z,99427.41
2023-01-17T22:34:04.405Z,99432.08
2023-01-17T22:36:31.525Z,99435.70
2023-01-17T22:38:58.535Z,99436.70
2023-01-17T22:41:30.725Z,99432.89
2023-01-17T22:43:58.790Z,99432.30
2023-01-17T22:46:28.289Z,99430.84
2023-01-17T22:48:55.825Z,99428.47
2023-01-17T22:51:24.880Z,99424.25
2023-01-17T22:53:53.655Z,99420.72
2023-01-17T22:56:22.386Z,99424.92
2023-01-17T22:58:49.685Z,99430.89
2023-01-17T23:01:26.832Z,99434.95
2023-01-17T23:03:55.568Z,99434.30
2023-01-17T23:06:27.602Z,99438.21
2023-01-17T23:08:56.501Z,99440.85
2023-01-17T23:11:39.035Z,99445.09
2023-01-17T23:14:19.052Z,99436.98
2023-01-17T23:17:09.189Z,99442.42
2023-01-17T23:19:50.468Z,99438.85
2023-01-17T23:22:27.356Z,99441.28
2023-01-17T23:24:54.791Z,99442.84
2023-01-17T23:27:43.375Z,99442.66
2023-01-17T23:30:11.599Z,99441.48
2023-01-17T23:32:39.487Z,99443.68
2023-01-17T23:35:06.557Z,99441.38
2023-01-17T23:37:51.946Z,99443.01
2023-01-17T23:40:18.757Z,99444.88
2023-01-17T23:43:04.501Z,99450.13
2023-01-17T23:45:34.285Z,99451.65
2023-01-17T23:48:01.513Z,99453.95
2023-01-17T23:50:28.381Z,99459.20
